createdAt,value
2023-02-09T00:00:49.220Z,8.21
2023-02-09T00:05:50.681Z,7.70
2023-02-09T00:10:52.143Z,7.97
2023-02-09T00:16:01.713Z,8.34
2023-02-09T00:21:09.378Z,8.05
2023-02-09T00:26:11.272Z,8.25
2023-02-09T00:31:12.915Z,8.13
2023-02-09T00:36:14.524Z,8.37
2023-02-09T00:41:16.022Z,7.88
2023-02-09T00:46:17.628Z,8.05
2023-02-09T00:51:19.113Z,8.13
2023-02-09T00:56:20.628Z,7.87
2023-02-09T01:01:22.133Z,8.10
2023-02-09T01:06:23.648Z,8.14
2023-02-09T01:11:28.036Z,8.10
2023-02-09T01:16:31.377Z,8.37
2023-02-09T01:21:33.060Z,8.24
2023-02-09T01:26:34.591Z,7.89
2023-02-09T01:31:36.189Z,8.06
2023-02-09T01:36:37.734Z,7.64
2023-02-09T01:41:39.433Z,8.17
2023-02-09T01:46:40.882Z,8.19
2023-02-09T01:52:01.206Z,7.95
2023-02-09T01:57:05.758Z,8.09
2023-02-09T02:02:07.245Z,8.23
2023-02-09T02:07:15.254Z,7.95
2023-02-09T02:12:16.717Z,8.34
2023-02-09T02:17:45.785Z,8.57
2023-02-09T02:22:52.850Z,8.40
2023-02-09T02:28:32.263Z,8.12
2023-02-09T02:33:39.601Z,8.11
2023-02-09T02:39:16.144Z,8.22
2023-02-09T02:44:17.607Z,7.84
2023-02-09T02:49:26.889Z,8.38
2023-02-09T02:54:29.706Z,8.32
2023-02-09T02:59:32.902Z,8.25
2023-02-09T03:04:34.362Z,8.48
2023-02-09T03:09:35.827Z,8.11
2023-02-09T03:14:43.025Z,7.96
2023-02-09T03:19:52.315Z,8.18
2023-02-09T03:24:58.192Z,8.20
2023-02-09T03:30:00.902Z,8.40
2023-02-09T03:35:02.382Z,7.90
2023-02-09T03:40:03.945Z,8.32
2023-02-09T03:45:07.929Z,8.19
2023-02-09T03:50:09.968Z,8.14
2023-02-09T03:55:11.415Z,7.79
2023-02-09T04:00:13.454Z,8.03
2023-02-09T04:05:14.907Z,7.90
2023-02-09T04:10:16.554Z,7.53
2023-02-09T04:15:18.093Z,7.61
2023-02-09T04:20:20.591Z,7.54
2023-02-09T04:25:22.079Z,7.76
2023-02-09T04:30:23.541Z,7.53
2023-02-09T04:35:25.049Z,6.89
2023-02-09T04:40:26.549Z,7.49
2023-02-09T04:45:28.046Z,7.13
2023-02-09T04:50:29.518Z,7.58
2023-02-09T04:55:30.983Z,7.26
2023-02-09T05:00:32.521Z,7.61
2023-02-09T05:05:33.980Z,7.67
2023-02-09T05:10:35.435Z,7.55
2023-02-09T05:15:36.897Z,7.27
2023-02-09T05:20:38.394Z,7.97
2023-02-09T05:25:39.971Z,7.94
2023-02-09T05:30:41.528Z,7.86
2023-02-09T05:35:43.007Z,7.67
2023-02-09T05:40:45.320Z,7.58
2023-02-09T05:45:46.910Z,7.08
2023-02-09T05:50:48.513Z,7.22
2023-02-09T05:55:50.014Z,7.18
2023-02-09T06:00:51.462Z,6.94
2023-02-09T06:05:52.909Z,7.22
2023-02-09T06:10:54.363Z,7.00
2023-02-09T06:15:55.846Z,7.34
2023-02-09T06:20:57.907Z,7.15
2023-02-09T06:25:59.382Z,7.55
2023-02-09T06:31:00.984Z,7.61
2023-02-09T06:36:02.529Z,7.07
2023-02-09T06:41:04.798Z,7.49
2023-02-09T06:46:09.998Z,7.70
2023-02-09T06:51:12.871Z,7.27
2023-02-09T06:56:14.619Z,7.43
2023-02-09T07:01:16.230Z,7.51
2023-02-09T07:06:18.620Z,7.80
2023-02-09T07:11:20.181Z,7.78
2023-02-09T07:16:21.784Z,7.49
2023-02-09T07:21:23.404Z,7.90
2023-02-09T07:26:24.918Z,7.65
2023-02-09T07:31:27.262Z,7.41
2023-02-09T07:36:28.837Z,7.59
2023-02-09T07:41:30.571Z,7.62
2023-02-09T07:46:32.079Z,7.53
2023-02-09T07:51:34.398Z,7.39
2023-02-09T07:56:35.931Z,7.53
2023-02-09T08:01:37.426Z,7.17
2023-02-09T08:06:42.999Z,7.48
2023-02-09T08:11:58.858Z,7.81
2023-02-09T08:17:24.289Z,7.72
2023-02-09T08:22:27.343Z,7.90
2023-02-09T08:27:28.855Z,7.27
2023-02-09T08:32:30.318Z,7.49
2023-02-09T08:37:31.770Z,7.70
2023-02-09T08:42:33.218Z,7.21
2023-02-09T08:47:34.692Z,7.97
2023-02-09T08:52:36.172Z,8.03
2023-02-09T08:57:44.037Z,7.84
2023-02-09T09:02:46.168Z,7.16
2023-02-09T09:07:48.210Z,7.69
2023-02-09T09:12:49.738Z,7.72
2023-02-09T09:17:51.200Z,7.61
2023-02-09T09:22:52.694Z,7.58
2023-02-09T09:27:54.185Z,7.06
2023-02-09T09:32:55.725Z,7.89
2023-02-09T09:37:58.421Z,8.02
2023-02-09T09:43:07.648Z,8.06
2023-02-09T09:48:25.926Z,8.03
2023-02-09T09:53:33.161Z,7.92
2023-02-09T09:58:35.120Z,7.58
2023-02-09T10:03:36.577Z,7.04
2023-02-09T10:08:46.105Z,8.10
2023-02-09T10:13:55.128Z,7.48
2023-02-09T10:18:57.952Z,7.19
2023-02-09T10:24:02.030Z,7.38
2023-02-09T10:29:12.691Z,7.41
2023-02-09T10:34:18.619Z,7.04
2023-02-09T10:39:23.552Z,7.99
2023-02-09T10:44:27.169Z,8.24
2023-02-09T10:49:30.794Z,8.11
2023-02-09T10:54:32.260Z,8.26
2023-02-09T10:59:34.004Z,7.26
2023-02-09T11:04:39.548Z,7.85
2023-02-09T11:09:44.458Z,7.58
2023-02-09T11:14:45.936Z,8.50
2023-02-09T11:20:12.135Z,8.27
2023-02-09T11:25:22.254Z,8.48
2023-02-09T11:30:54.674Z,8.43
2023-02-09T11:36:15.550Z,7.77
2023-02-09T11:41:41.276Z,8.20
2023-02-09T11:46:42.786Z,7.84
2023-02-09T11:51:44.297Z,7.94
2023-02-09T11:56:49.929Z,8.67
2023-02-09T12:02:01.911Z,8.53
2023-02-09T12:07:14.644Z,8.89
2023-02-09T12:12:18.939Z,7.98
2023-02-09T12:17:28.345Z,8.70
2023-02-09T12:22:35.484Z,8.62
2023-02-09T12:27:38.895Z,8.76
2023-02-09T12:32:43.876Z,8.51
2023-02-09T12:38:15.702Z,8.98
2023-02-09T12:43:27.655Z,8.60
2023-02-09T12:48:29.112Z,7.78
2023-02-09T12:53:34.739Z,8.34
2023-02-09T12:58:44.857Z,8.33
2023-02-09T13:04:03.634Z,7.70
2023-02-09T13:09:07.407Z,8.37
2023-02-09T13:14:11.556Z,7.87
2023-02-09T13:19:36.363Z,8.18
2023-02-09T13:25:09.742Z,8.40
2023-02-09T13:30:25.137Z,7.92
2023-02-09T13:35:28.612Z,8.95
2023-02-09T13:40:31.257Z,8.62
2023-02-09T13:45:32.787Z,9.10
2023-02-09T13:50:34.253Z,8.32
2023-02-09T13:55:37.752Z,8.24
2023-02-09T14:00:59.491Z,8.76
2023-02-09T14:06:44.300Z,8.75
2023-02-09T14:11:49.782Z,8.86
2023-02-09T14:17:25.184Z,9.01
2023-02-09T14:22:37.998Z,9.08
2023-02-09T14:27:39.554Z,9.28
2023-02-09T14:32:45.156Z,9.33
2023-02-09T14:37:46.728Z,9.34
2023-02-09T14:43:19.831Z,9.22
2023-02-09T14:48:22.721Z,9.25
2023-02-09T14:53:25.616Z,9.51
2023-02-09T14:58:28.652Z,9.46
2023-02-09T15:03:30.149Z,9.50
2023-02-09T15:08:34.388Z,9.89
2023-02-09T15:13:35.888Z,9.06
2023-02-09T15:18:40.332Z,9.04
2023-02-09T15:23:42.760Z,9.06
2023-02-09T15:28:44.424Z,9.04
2023-02-09T15:33:45.892Z,9.20
2023-02-09T15:38:47.371Z,9.63
2023-02-09T15:44:07.246Z,8.98
2023-02-09T15:49:08.744Z,9.60
2023-02-09T15:54:17.944Z,9.25
2023-02-09T15:59:21.095Z,9.75
2023-02-09T16:04:22.414Z,9.65
2023-02-09T16:09:26.756Z,9.29
2023-02-09T16:14:28.559Z,9.55
2023-02-09T16:19:30.122Z,9.92
2023-02-09T16:24:41.319Z,9.71
2023-02-09T16:29:42.872Z,9.91
2023-02-09T16:34:44.500Z,9.41
2023-02-09T16:39:45.954Z,9.33
2023-02-09T16:44:47.434Z,9.79
2023-02-09T16:49:57.585Z,9.37
2023-02-09T16:55:00.770Z,9.92
2023-02-09T17:00:02.124Z,9.35
2023-02-09T17:05:21.834Z,9.95
2023-02-09T17:10:25.467Z,9.70
2023-02-09T17:15:30.977Z,9.93
2023-02-09T17:20:37.198Z,10.43
2023-02-09T17:25:38.673Z,10.62
2023-02-09T17:30:40.276Z,9.53
2023-02-09T17:41:05.140Z,9.29
2023-02-09T17:46:07.914Z,9.71
2023-02-09T17:51:18.751Z,9.86
2023-02-09T17:56:20.224Z,10.12
2023-02-09T18:01:29.007Z,9.96
2023-02-09T18:06:35.223Z,9.92
2023-02-09T18:11:42.234Z,10.45
2023-02-09T18:16:44.157Z,9.56
2023-02-09T18:21:56.538Z,10.14
2023-02-09T18:26:58.004Z,10.48
2023-02-09T18:32:00.453Z,10.15
2023-02-09T18:37:01.948Z,10.52
2023-02-09T18:42:03.420Z,10.80
2023-02-09T18:47:05.679Z,10.81
2023-02-09T18:52:08.401Z,10.75
2023-02-09T18:57:09.855Z,11.00
2023-02-09T19:02:14.799Z,10.95
2023-02-09T19:07:16.966Z,10.74
2023-02-09T19:12:18.464Z,10.82
2023-02-09T19:17:20.563Z,11.01
2023-02-09T19:22:22.039Z,10.85
2023-02-09T19:27:24.283Z,10.83
2023-02-09T19:32:26.347Z,10.94
2023-02-09T19:37:27.818Z,10.99
2023-02-09T19:42:29.341Z,10.57
2023-02-09T19:47:30.808Z,10.67
2023-02-09T19:52:34.732Z,10.64
2023-02-09T19:57:36.201Z,10.80
2023-02-09T20:02:37.747Z,10.74
2023-02-09T20:07:39.243Z,10.61
2023-02-09T20:12:40.736Z,10.90
2023-02-09T20:17:42.265Z,10.88
2023-02-09T20:22:43.722Z,10.75
2023-02-09T20:27:47.597Z,10.75
2023-02-09T20:32:49.093Z,10.85
2023-02-09T20:37:52.766Z,10.60
2023-02-09T20:43:12.529Z,10.77
2023-02-09T20:48:14.129Z,10.68
2023-02-09T20:53:15.612Z,10.93
2023-02-09T20:58:17.420Z,10.61
2023-02-09T21:03:18.889Z,11.09
2023-02-09T21:08:21.439Z,10.87
2023-02-09T21:13:23.719Z,11.13
2023-02-09T21:18:25.288Z,11.20
2023-02-09T21:23:26.781Z,10.97
2023-02-09T21:28:28.358Z,11.15
2023-02-09T21:33:29.853Z,11.19
2023-02-09T21:38:31.338Z,10.73
2023-02-09T21:43:33.007Z,11.10
2023-02-09T21:48:34.473Z,11.00
2023-02-09T21:53:36.043Z,10.99
2023-02-09T21:58:37.511Z,10.98
2023-02-09T22:03:39.264Z,10.74
2023-02-09T22:08:41.506Z,11.03
2023-02-09T22:13:42.980Z,11.07
2023-02-09T22:18:44.430Z,11.11
2023-02-09T22:23:45.915Z,11.06
2023-02-09T22:28:47.378Z,10.77
2023-02-09T22:33:53.104Z,10.30
2023-02-09T22:38:54.571Z,10.13
2023-02-09T22:44:06.900Z,10.20
2023-02-09T22:49:14.276Z,10.15
2023-02-09T22:54:16.913Z,10.49
2023-02-09T22:59:18.370Z,10.56
2023-02-09T23:04:19.909Z,10.62
2023-02-09T23:09:21.447Z,10.56
2023-02-09T23:14:22.923Z,10.46
2023-02-09T23:19:24.395Z,10.69
2023-02-09T23:24:26.234Z,10.78
2023-02-09T23:29:28.059Z,10.81
2023-02-09T23:34:29.596Z,11.01
2023-02-09T23:39:31.092Z,11.06
2023-02-09T23:44:32.622Z,11.09
2023-02-09T23:49:34.134Z,11.39
2023-02-09T23:54:35.594Z,11.32
2023-02-09T23:59:37.071Z,11.25
